Historique des mesures à Cassis (13260), France
Quotidien Résumé Mars 21, 2018 Unités:  Métrique    US   Métrique/US
« Précédent (Jour)
Suivant (Jour) »
Quotidien Hebdomadaire Mensuel Annuel Période au choix
  Maximum: Minimum: Moyenne:
Température: TemperatureC °C 3.2 °C 6.2 °C
Point de rosée: DewpointC °C -5.3 °C -1.2 °C
Humidité: Humidity % 44 % 56 %
Vitesse du vent: 0 km/h 0 km/h 13.4 km/h
Rafales: 0 km/h - -
Vent:- - WNW
Pression: PressurehPa hPa 1003.9 hPa -
Précipitations: 3.6 mm    
Historical Graphs
 
 
Mesures pour : Mars 21, 2018
Heure Temperature Point de rosée Pression Vent Vitesse du vent Rafales Humidité Pluie (par heure) Conditions
TemperatureC °C DewpointC °C PressurehPa hPa Calm     Humidity % HourlyPrecipMM mm SoftwareType W/m2
00:11 6.7 °C -4.4 °C 1004.3 hPa NW 23 km/h 23 km/h 45 % 0.0 mm open2300-1.11 W/m2
01:11 6.1 °C -5.3 °C 1003.9 hPa NNW 20.9 km/h 23.8 km/h 44 % 0.0 mm open2300-1.11 W/m2
02:12 5.9 °C -5.2 °C 1004.3 hPa NW 53.9 km/h 53.9 km/h 45 % 0.0 mm open2300-1.11 W/m2
06:11 6.4 °C -4.7 °C 1006.7 hPa NW 10.9 km/h 10.9 km/h 45 % 0.0 mm open2300-1.11 W/m2
07:12 6.1 °C -4.4 °C 1008.0 hPa WNW 10.9 km/h 10.9 km/h 47 % 0.0 mm open2300-1.11 W/m2
08:11 6.1 °C -3.1 °C 1009.0 hPa NNW 7.6 km/h 7.6 km/h 52 % 0.0 mm open2300-1.11 W/m2
09:12 4.4 °C -0.6 °C 1011.1 hPa Calm   9.3 km/h 70 % 0.0 mm open2300-1.11 W/m2
10:12 3.2 °C -0.4 °C 1012.1 hPa WNW 22 km/h 22 km/h 77 % 2.5 mm open2300-1.11 W/m2
11:12 3.7 °C 0.4 °C 1012.4 hPa NNW 10.9 km/h 19.6 km/h 79 % 1.0 mm open2300-1.11 W/m2
12:11 4.9 °C 1.3 °C 1013.1 hPa West 23 km/h 23 km/h 78 % 0.0 mm open2300-1.11 W/m2
13:12 6.6 °C 2.7 °C 1013.4 hPa WNW 14.5 km/h 28.5 km/h 76 % 0.0 mm open2300-1.11 W/m2
14:11 7.1 °C 1.4 °C 1013.4 hPa NW 17.9 km/h 17.9 km/h 67 % 0.0 mm open2300-1.11 W/m2
15:12 8.9 °C 1.1 °C 1013.4 hPa WNW 15 km/h 26.2 km/h 58 % 0.0 mm open2300-1.11 W/m2
16:12 10.1 °C 0.2 °C 1013.1 hPa WSW 32.3 km/h 32.3 km/h 50 % 0.0 mm open2300-1.11 W/m2
17:12 9.9 °C -0.3 °C 1012.8 hPa NW 8 km/h 17.9 km/h 49 % 0.0 mm open2300-1.11 W/m2
18:11 9.6 °C -0.1 °C 1012.8 hPa WNW 9.8 km/h 13.2 km/h 51 % 0.0 mm open2300-1.11 W/m2
19:12 7.3 °C -0.4 °C 1013.1 hPa Calm     58 % 0.0 mm open2300-1.11 W/m2
20:11 6.2 °C -0.8 °C 1013.8 hPa WNW 7.6 km/h 15 km/h 61 % 0.0 mm open2300-1.11 W/m2
21:11 5.8 °C -0.9 °C 1014.1 hPa North 4.2 km/h 4.2 km/h 62 % 0.0 mm open2300-1.11 W/m2
22:11 5.9 °C -0.8 °C 1014.1 hPa Calm   8 km/h 62 % 0.0 mm open2300-1.11 W/m2
23:11 5.8 °C -1.2 °C 1014.8 hPa Calm   2.9 km/h 61 % 0.0 mm open2300-1.11 W/m2
Observations météo à CASSIS
WU-History script by Weather Underground - 1 mb